Time;durP1;ratioP1;P1;durP2;ratioP2;P2;SDS_P1;SDS_P2;PMS_P1;PMS_P2;Temp;Humidity;BMP_temperature;BMP_pressure;BME280_temperature;BME280_humidity;BME280_pressure;Samples;Min_cycle;Max_cycle;Signal;HPM_P1;HPM_P2
2022/01/04 00:00:18;;;;;;;2.53;1.30;;;;;;;10.53;86.48;97745.94;2623924;54;20063;-72
2022/01/04 00:02:51;;;;;;;1.20;1.10;;;;;;;10.51;86.74;97742.72;2623921;54;20065;-72
2022/01/04 00:05:20;;;;;;;1.75;1.65;;;;;;;10.49;86.86;97736.81;2623295;54;20046;-72
2022/01/04 00:07:52;;;;;;;1.55;1.45;;;;;;;10.49;87.47;97723.63;2623139;54;20031;-72
2022/01/04 00:10:25;;;;;;;2.10;1.42;;;;;;;10.47;87.24;97723.84;2623743;54;20094;-72
2022/01/04 00:15:39;;;;;;;1.92;1.73;;;;;;;10.49;86.97;97705.13;2621977;46;20030;-71
2022/01/04 00:18:11;;;;;;;2.40;1.95;;;;;;;10.51;86.85;97703.88;2621670;54;20042;-72
2022/01/04 00:20:41;;;;;;;3.80;2.03;;;;;;;10.54;86.61;97713.22;2620752;54;20038;-71
2022/01/04 00:23:11;;;;;;;2.40;1.92;;;;;;;10.53;85.73;97696.56;2621491;54;20041;-72
2022/01/04 00:25:40;;;;;;;2.67;1.77;;;;;;;10.55;85.45;97691.06;2622147;54;20042;-71
2022/01/04 00:28:14;;;;;;;2.60;1.88;;;;;;;10.56;85.44;97687.38;2623007;54;20040;-70
2022/01/04 00:30:44;;;;;;;;;;;;;;;10.53;85.19;97685.16;2621578;47;20034;-71
2022/01/04 00:33:17;;;;;;;2.45;2.03;;;;;;;10.54;85.17;97671.75;2621831;54;19995;-71
2022/01/04 00:35:48;;;;;;;3.58;2.17;;;;;;;10.57;84.80;97662.56;2622536;54;20030;-70
2022/01/04 00:38:18;;;;;;;2.42;2.10;;;;;;;10.58;85.05;97649.13;2622614;51;20033;-70
2022/01/04 00:41:00;;;;;;;2.17;1.80;;;;;;;10.57;84.98;97659.91;2623637;47;20038;-71
2022/01/04 00:43:36;;;;;;;2.15;1.70;;;;;;;10.60;84.94;97656.84;2621974;54;20077;-71
2022/01/04 00:46:15;;;;;;;2.10;1.90;;;;;;;10.60;84.87;97647.06;2622794;54;20070;-72
2022/01/04 00:51:36;;;;;;;4.32;2.40;;;;;;;10.58;84.92;97632.47;2622326;39;20450;-73
2022/01/04 00:54:20;;;;;;;2.72;2.00;;;;;;;10.58;84.63;97635.13;2622191;47;20031;-71
2022/01/04 00:56:52;;;;;;;1.90;1.80;;;;;;;10.58;84.49;97621.91;2622643;54;20055;-71
2022/01/04 00:59:22;;;;;;;3.22;2.40;;;;;;;10.54;84.50;97618.09;2624548;39;20454;-70
2022/01/04 01:01:55;;;;;;;3.63;2.20;;;;;;;10.53;84.89;97609.38;2622335;54;20613;-71
2022/01/04 01:04:30;;;;;;;2.67;2.30;;;;;;;10.53;84.88;97606.72;2622709;47;20031;-70
2022/01/04 01:07:07;;;;;;;3.20;2.30;;;;;;;10.51;84.74;97610.59;2624065;54;20616;-72
2022/01/04 01:09:47;;;;;;;2.85;2.60;;;;;;;10.49;84.64;97592.34;2624316;54;20066;-70
2022/01/04 01:12:17;;;;;;;4.30;2.45;;;;;;;10.44;84.72;97578.97;2623227;47;20034;-72
2022/01/04 01:14:47;;;;;;;3.67;2.20;;;;;;;10.45;84.73;97566.56;2622456;54;20063;-71
2022/01/04 01:17:17;;;;;;;5.00;2.92;;;;;;;10.46;84.74;97570.84;2621733;46;20038;-71
2022/01/04 01:19:49;;;;;;;2.75;2.40;;;;;;;10.47;84.90;97572.44;2621539;54;20033;-72
2022/01/04 01:22:19;;;;;;;2.42;2.22;;;;;;;10.43;84.74;97566.00;2621249;54;20600;-72
2022/01/04 01:24:48;;;;;;;3.03;2.00;;;;;;;10.45;84.59;97567.38;2622476;54;20088;-72
2022/01/04 01:27:18;;;;;;;2.58;2.20;;;;;;;10.47;84.96;97560.03;2622943;54;20030;-70
2022/01/04 01:29:48;;;;;;;2.65;2.35;;;;;;;10.44;84.24;97557.81;2623456;54;20027;-71
2022/01/04 01:32:19;;;;;;;4.88;2.50;;;;;;;10.42;84.84;97562.53;2622962;54;20030;-71
2022/01/04 01:34:53;;;;;;;3.08;2.30;;;;;;;10.41;85.06;97543.25;2622423;54;20029;-71
2022/01/04 01:37:23;;;;;;;4.10;2.70;;;;;;;10.42;84.68;97551.97;2623812;39;20462;-71
2022/01/04 01:39:52;;;;;;;3.92;2.70;;;;;;;10.43;84.85;97547.50;2623019;47;20046;-70
2022/01/04 01:42:23;;;;;;;2.97;2.60;;;;;;;10.44;84.68;97543.81;2623122;54;20557;-72
2022/01/04 01:44:53;;;;;;;4.72;2.75;;;;;;;10.44;84.74;97546.47;2623747;54;20022;-72
2022/01/04 01:47:23;;;;;;;4.65;3.03;;;;;;;10.43;84.67;97536.94;2623160;39;20451;-71
2022/01/04 01:49:58;;;;;;;3.42;2.75;;;;;;;10.44;85.08;97538.53;2622699;54;20022;-72
2022/01/04 01:52:30;;;;;;;3.25;2.65;;;;;;;10.41;84.79;97532.69;2621828;54;20086;-71
2022/01/04 01:55:01;;;;;;;3.45;2.58;;;;;;;10.40;84.50;97522.31;2622424;47;20094;-72
2022/01/04 01:57:32;;;;;;;3.10;2.80;;;;;;;10.36;84.69;97526.44;2622131;54;20042;-71
2022/01/04 02:00:03;;;;;;;3.50;2.90;;;;;;;10.32;84.91;97517.34;2622635;54;20158;-72
2022/01/04 02:02:33;;;;;;;4.05;2.95;;;;;;;10.34;85.50;97518.72;2622032;49;20074;-72
2022/01/04 02:05:10;;;;;;;5.50;3.28;;;;;;;10.30;85.64;97500.91;2622308;47;20031;-71
2022/01/04 02:07:42;;;;;;;5.32;2.95;;;;;;;10.27;85.75;97510.06;2623540;54;20038;-72
2022/01/04 02:10:13;;;;;;;5.57;3.00;;;;;;;10.26;85.75;97487.34;2621888;54;20026;-72
2022/01/04 02:12:47;;;;;;;4.80;2.92;;;;;;;10.25;85.70;97488.38;2622352;47;20593;-72
2022/01/04 02:15:18;;;;;;;3.40;3.10;;;;;;;10.22;85.58;97483.50;2622461;54;20046;-72
2022/01/04 02:17:49;;;;;;;3.20;2.72;;;;;;;10.24;85.36;97478.00;2622683;54;20046;-71
2022/01/04 02:20:24;;;;;;;3.10;2.33;;;;;;;10.24;85.57;97470.06;2622599;54;20082;-72
2022/01/04 02:22:55;;;;;;;5.25;2.95;;;;;;;10.21;84.94;97454.69;2622605;54;20038;-71
2022/01/04 02:25:25;;;;;;;4.90;2.45;;;;;;;10.21;85.16;97454.69;2623318;54;20045;-72
2022/01/04 02:27:55;;;;;;;3.08;2.38;;;;;;;10.16;85.16;97456.16;2623913;54;20039;-72
2022/01/04 02:30:25;;;;;;;2.58;2.20;;;;;;;10.20;85.31;97443.28;2624229;54;20107;-71
2022/01/04 02:32:54;;;;;;;2.92;2.30;;;;;;;10.20;84.93;97438.00;2624163;54;20030;-72
2022/01/04 02:35:30;;;;;;;2.78;2.33;;;;;;;10.16;85.44;97439.47;2624391;54;20023;-73
2022/01/04 02:38:01;;;;;;;4.80;2.60;;;;;;;10.14;85.55;97431.00;2624061;54;20027;-71
2022/01/04 02:40:31;;;;;;;2.90;2.55;;;;;;;10.15;85.22;97420.19;2624028;54;20047;-71
2022/01/04 02:43:01;;;;;;;3.92;2.80;;;;;;;10.14;85.21;97421.22;2624402;54;20041;-72
2022/01/04 02:45:31;;;;;;;3.83;2.30;;;;;;;10.16;85.33;97418.34;2625535;39;20450;-71
2022/01/04 02:48:01;;;;;;;3.60;2.45;;;;;;;10.15;84.94;97420.19;2625256;54;20034;-72
2022/01/04 02:50:33;;;;;;;2.63;2.40;;;;;;;10.13;85.05;97414.34;2625180;54;20054;-72
2022/01/04 02:53:03;;;;;;;3.00;2.33;;;;;;;10.15;84.88;97406.19;2624294;47;20041;-72
2022/01/04 02:55:33;;;;;;;2.08;1.90;;;;;;;10.15;84.90;97407.00;2624896;54;20546;-72
2022/01/04 02:58:03;;;;;;;2.50;2.30;;;;;;;10.12;84.69;97402.19;2624570;54;20042;-72
2022/01/04 03:00:32;;;;;;;3.85;2.80;;;;;;;10.10;85.13;97411.34;2625675;54;20054;-71
2022/01/04 03:03:02;;;;;;;4.40;3.00;;;;;;;10.09;85.13;97396.53;2625314;54;20030;-71
2022/01/04 03:05:35;;;;;;;2.60;2.40;;;;;;;10.09;84.77;97396.53;2624708;54;20026;-71
2022/01/04 03:08:05;;;;;;;5.55;2.45;;;;;;;10.07;84.91;97404.66;2624410;54;20027;-70
2022/01/04 03:10:35;;;;;;;4.00;2.58;;;;;;;10.07;85.23;97386.19;2624766;54;20034;-71
2022/01/04 03:13:05;;;;;;;2.70;2.50;;;;;;;10.04;85.03;97386.66;2624906;54;20054;-70
2022/01/04 03:15:35;;;;;;;3.28;2.50;;;;;;;10.02;84.96;97378.13;2624061;47;20027;-70
2022/01/04 03:18:04;;;;;;;2.65;2.20;;;;;;;10.02;84.90;97364.94;2624220;54;20023;-71
2022/01/04 03:20:36;;;;;;;2.70;2.35;;;;;;;10.01;85.01;97365.16;2624538;54;20045;-71
2022/01/04 03:23:09;;;;;;;4.43;2.10;;;;;;;10.02;85.29;97348.28;2622017;54;20038;-71
2022/01/04 03:25:40;;;;;;;3.55;2.25;;;;;;;10.01;84.91;97352.78;2623724;54;20102;-71
2022/01/04 03:28:14;;;;;;;2.20;2.00;;;;;;;10.05;84.88;97345.22;2623662;54;20031;-71
2022/01/04 03:30:44;;;;;;;2.30;1.98;;;;;;;10.02;85.02;97340.38;2624512;54;20030;-71
2022/01/04 03:33:15;;;;;;;2.15;1.95;;;;;;;10.00;84.75;97329.22;2624585;54;20608;-70
2022/01/04 03:35:47;;;;;;;2.85;2.35;;;;;;;10.02;85.05;97333.25;2624441;54;20026;-71
2022/01/04 03:38:17;;;;;;;3.53;2.28;;;;;;;10.02;84.84;97316.59;2624537;54;20061;-71
2022/01/04 03:40:47;;;;;;;1.75;1.65;;;;;;;10.03;84.94;97313.72;2624056;54;20062;-71
2022/01/04 03:43:17;;;;;;;2.72;2.25;;;;;;;10.01;84.88;97317.66;2624555;54;20037;-72
2022/01/04 03:45:46;;;;;;;4.40;2.33;;;;;;;10.00;85.30;97311.56;2624050;54;20031;-70
2022/01/04 03:48:16;;;;;;;3.47;2.17;;;;;;;10.01;85.22;97305.25;2623805;54;20034;-70
2022/01/04 03:50:48;;;;;;;4.82;1.98;;;;;;;10.01;85.02;97297.34;2624899;54;20039;-69
2022/01/04 03:53:18;;;;;;;4.00;1.92;;;;;;;9.98;84.93;97291.69;2624992;39;20082;-69
2022/01/04 03:55:47;;;;;;;2.95;2.03;;;;;;;10.00;84.83;97289.63;2624505;54;20062;-71
2022/01/04 03:58:17;;;;;;;2.15;1.70;;;;;;;9.97;85.17;97282.97;2624517;54;20034;-72
2022/01/04 04:00:46;;;;;;;3.38;2.03;;;;;;;9.96;85.26;97280.53;2624391;54;20652;-70
2022/01/04 04:03:16;;;;;;;2.70;1.92;;;;;;;9.96;85.18;97278.72;2624919;54;20014;-70
2022/01/04 04:05:49;;;;;;;3.08;1.90;;;;;;;9.96;85.06;97267.34;2622985;54;20038;-71
2022/01/04 04:08:19;;;;;;;2.03;1.85;;;;;;;9.97;84.83;97267.13;2624774;39;20417;-70
2022/01/04 04:10:48;;;;;;;4.20;1.80;;;;;;;9.95;85.28;97258.63;2623999;54;20030;-71
2022/01/04 04:13:18;;;;;;;1.92;1.70;;;;;;;9.95;85.39;97249.91;2624469;54;20074;-70
2022/01/04 04:15:48;;;;;;;3.00;1.88;;;;;;;10.01;85.72;97249.81;2624499;54;20050;-72
2022/01/04 04:18:18;;;;;;;1.60;1.50;;;;;;;10.03;85.76;97236.38;2624414;54;20030;-71
2022/01/04 04:20:50;;;;;;;2.60;1.80;;;;;;;10.04;86.08;97236.16;2624427;47;20034;-71
2022/01/04 04:23:20;;;;;;;1.90;1.60;;;;;;;10.02;85.70;97227.66;2625085;54;20058;-71
2022/01/04 04:25:50;;;;;;;1.73;1.40;;;;;;;10.00;85.67;97211.25;2624292;54;20039;-71
2022/01/04 04:28:19;;;;;;;2.88;1.70;;;;;;;9.99;85.62;97212.25;2624492;54;20038;-71
2022/01/04 04:30:49;;;;;;;2.63;1.65;;;;;;;10.01;85.21;97198.84;2623186;54;20035;-71
2022/01/04 04:33:18;;;;;;;2.20;1.55;;;;;;;10.02;85.39;97200.44;2623626;54;20038;-71
2022/01/04 04:35:50;;;;;;;2.67;1.83;;;;;;;10.07;85.27;97197.91;2623349;54;20038;-72
2022/01/04 04:38:20;;;;;;;3.58;1.58;;;;;;;10.05;85.03;97192.88;2623948;54;20103;-71
2022/01/04 04:40:50;;;;;;;1.42;1.23;;;;;;;10.03;85.58;97180.94;2623358;54;20030;-71
2022/01/04 04:43:19;;;;;;;1.48;1.23;;;;;;;10.04;85.36;97177.25;2623117;54;20573;-70
2022/01/04 04:45:49;;;;;;;1.45;1.35;;;;;;;10.02;85.73;97168.78;2623099;54;20145;-71
2022/01/04 04:48:19;;;;;;;1.48;1.38;;;;;;;10.03;85.52;97175.66;2623050;54;20036;-71
2022/01/04 04:50:51;;;;;;;1.58;1.40;;;;;;;10.03;85.14;97173.00;2623467;54;20862;-71
2022/01/04 04:53:20;;;;;;;1.30;1.20;;;;;;;10.06;85.70;97172.56;2623568;54;20043;-71
2022/01/04 04:55:50;;;;;;;1.67;1.30;;;;;;;10.07;85.81;97159.13;2624176;54;20027;-69
2022/01/04 04:58:19;;;;;;;0.90;0.90;;;;;;;10.07;85.62;97160.97;2623501;54;20103;-70
2022/01/04 05:00:49;;;;;;;1.55;1.33;;;;;;;10.06;85.52;97154.88;2624035;39;20461;-70
2022/01/04 05:03:19;;;;;;;0.93;0.90;;;;;;;10.04;85.22;97158.78;2625044;54;20082;-71
2022/01/04 05:05:51;;;;;;;1.48;1.10;;;;;;;10.04;85.25;97150.84;2624871;54;20030;-70
2022/01/04 05:08:20;;;;;;;2.38;1.30;;;;;;;10.04;85.27;97148.22;2625058;54;20030;-70
2022/01/04 05:10:50;;;;;;;0.82;0.82;;;;;;;10.05;85.66;97149.84;2625047;54;20576;-70
2022/01/04 05:13:20;;;;;;;1.30;1.15;;;;;;;10.04;85.78;97138.47;2625723;39;20422;-70
2022/01/04 05:15:49;;;;;;;1.02;0.90;;;;;;;10.06;85.93;97143.53;2625177;54;20062;-71
2022/01/04 05:18:19;;;;;;;0.75;0.75;;;;;;;10.05;86.29;97141.91;2625461;39;20486;-71
2022/01/04 05:20:51;;;;;;;0.70;0.70;;;;;;;10.08;85.99;97128.25;2624344;54;20585;-70
2022/01/04 11:01:52;;;;;;;1.20;0.90;;;;;;;8.26;82.91;96996.91;2585577;46;20039;-70
2022/01/04 11:04:24;;;;;;;10.98;3.28;;;;;;;8.36;83.05;96999.78;2623485;54;20037;-68
2022/01/04 11:07:01;;;;;;;2.17;1.02;;;;;;;8.30;81.71;97001.50;2623563;54;20027;-69
2022/01/04 11:09:32;;;;;;;2.00;1.65;;;;;;;8.21;82.35;97002.03;2623883;54;20033;-70
2022/01/04 11:12:01;;;;;;;88.10;45.85;;;;;;;8.26;82.16;97005.59;2623295;54;20035;-69
2022/01/04 11:14:33;;;;;;;10.20;5.80;;;;;;;8.33;82.38;97008.94;2623865;39;20489;-69
2022/01/04 11:17:04;;;;;;;2.45;2.03;;;;;;;8.26;81.79;97018.75;2622268;54;20085;-71
2022/01/04 11:19:36;;;;;;;2.20;2.00;;;;;;;8.27;81.96;97009.81;2622142;54;20065;-69
2022/01/04 11:22:08;;;;;;;2.28;1.48;;;;;;;8.12;81.30;97023.38;2622513;54;20126;-70
2022/01/04 11:24:39;;;;;;;3.35;2.30;;;;;;;8.14;82.09;97023.94;2622571;54;20065;-70
2022/01/04 11:27:11;;;;;;;2.67;2.20;;;;;;;8.20;81.62;97040.69;2622224;54;20038;-70
2022/01/04 11:29:52;;;;;;;4.97;3.00;;;;;;;8.23;81.68;97050.78;2622052;54;20026;-69
2022/01/04 11:32:24;;;;;;;4.22;2.53;;;;;;;8.16;82.19;97050.88;2621390;46;20034;-70
2022/01/04 11:35:16;;;;;;;2.47;2.15;;;;;;;8.23;81.99;97058.69;2621035;54;20570;-70
2022/01/04 11:37:54;;;;;;;2.58;2.22;;;;;;;8.23;81.45;97060.50;2621740;39;20490;-70
2022/01/04 11:40:25;;;;;;;3.92;2.17;;;;;;;8.18;81.51;97058.53;2621289;54;20038;-70
2022/01/04 11:42:56;;;;;;;2.30;1.92;;;;;;;8.17;81.61;97070.09;2621933;54;20042;-70
2022/01/04 11:45:46;;;;;;;3.88;2.00;;;;;;;8.25;81.27;97069.00;2625072;39;20418;-70
2022/01/04 11:48:30;;;;;;;2.50;1.80;;;;;;;8.25;80.89;97066.38;2623411;54;20083;-71
2022/01/04 11:51:04;;;;;;;2.72;2.28;;;;;;;8.33;81.29;97076.59;2624271;54;20582;-70
2022/01/04 11:53:34;;;;;;;3.20;2.03;;;;;;;8.23;80.79;97081.56;2623713;54;20026;-70
2022/01/04 11:56:08;;;;;;;2.95;1.90;;;;;;;8.20;80.89;97090.69;2621984;54;20035;-71
2022/01/04 11:58:50;;;;;;;2.53;2.10;;;;;;;8.21;80.46;97087.06;2623641;54;20026;-71
2022/01/04 12:01:27;;;;;;;2.67;1.63;;;;;;;8.19;80.50;97079.38;2623157;54;20034;-70
2022/01/04 12:03:58;;;;;;;2.67;2.08;;;;;;;8.17;80.75;97093.78;2623308;54;20150;-71
2022/01/04 12:06:42;;;;;;;6.82;5.70;;;;;;;8.25;80.68;97105.84;2623217;54;20070;-71
2022/01/04 12:09:27;;;;;;;12.70;9.40;;;;;;;8.24;80.68;97077.91;2623676;54;20029;-71
2022/01/04 12:11:56;;;;;;;3.22;2.60;;;;;;;8.18;80.49;97119.06;2624216;54;20033;-70
2022/01/04 12:14:28;;;;;;;1.65;1.40;;;;;;;8.06;79.89;97120.81;2624921;39;20433;-71
2022/01/04 12:17:05;;;;;;;4.40;3.25;;;;;;;8.05;80.11;97111.31;2624443;54;20069;-71
2022/01/04 12:19:51;;;;;;;1.40;0.93;;;;;;;8.05;79.68;97119.22;2622913;47;20041;-71
2022/01/04 12:22:36;;;;;;;1.73;1.30;;;;;;;8.04;80.12;97130.75;2622788;54;20043;-71
2022/01/04 12:25:12;;;;;;;1.90;0.88;;;;;;;7.99;79.41;97125.34;2622225;47;20030;-72
2022/01/04 12:27:41;;;;;;;0.85;0.80;;;;;;;7.88;79.06;97113.72;2623341;47;20045;-70
2022/01/04 12:30:29;;;;;;;0.90;0.90;;;;;;;7.91;79.11;97121.94;2623460;54;20026;-69
2022/01/04 12:33:29;;;;;;;1.20;0.98;;;;;;;7.91;79.62;97123.78;2623718;54;20023;-70
2022/01/04 12:35:58;;;;;;;0.98;0.80;;;;;;;7.92;79.84;97122.78;2623400;50;20022;-70
2022/01/04 12:38:32;;;;;;;1.48;0.90;;;;;;;8.01;79.54;97115.41;2623506;54;20061;-70
2022/01/04 12:41:02;;;;;;;1.38;1.20;;;;;;;8.05;79.16;97112.13;2623850;47;20042;-70
2022/01/04 12:43:32;;;;;;;1.80;1.20;;;;;;;8.11;79.88;97113.88;2623970;47;20029;-70
2022/01/04 12:46:03;;;;;;;1.90;0.80;;;;;;;8.11;79.64;97111.25;2623504;54;20158;-70
2022/01/04 12:48:56;;;;;;;1.30;1.00;;;;;;;8.06;79.50;97115.56;2623534;54;20134;-70
2022/01/04 12:51:30;;;;;;;1.35;0.95;;;;;;;8.00;79.38;97126.94;2622967;47;20037;-70
2022/01/04 12:54:06;;;;;;;;;;;;;;;8.00;79.56;97126.94;2623173;54;20038;-70
2022/01/04 12:56:42;;;;;;;3.38;1.38;;;;;;;7.97;79.02;97122.94;2622952;47;19942;-70
2022/01/04 12:59:31;;;;;;;1.02;0.90;;;;;;;7.95;78.85;97122.31;2623464;54;20030;-70
2022/01/04 13:02:02;;;;;;;1.70;1.30;;;;;;;7.90;78.85;97132.69;2624210;54;20046;-69
2022/01/04 13:04:35;;;;;;;53.30;18.98;;;;;;;7.94;79.41;97133.88;2624319;54;20038;-70
2022/01/04 13:07:08;;;;;;;9.48;4.88;;;;;;;8.00;79.35;97134.81;2623490;47;20031;-70
2022/01/04 13:09:42;;;;;;;7.43;3.97;;;;;;;7.99;79.12;97146.38;2622892;54;20030;-69
2022/01/04 13:12:12;;;;;;;3.58;2.30;;;;;;;7.96;78.79;97152.91;2622838;54;20059;-69
2022/01/04 13:14:41;;;;;;;2.78;2.20;;;;;;;8.01;79.15;97152.25;2623272;54;20038;-69
2022/01/04 13:17:14;;;;;;;1.20;1.10;;;;;;;8.07;79.43;97148.75;2623884;39;20481;-70
2022/01/04 13:19:45;;;;;;;1.52;1.38;;;;;;;8.04;79.39;97160.53;2624159;47;20056;-70
2022/01/04 13:22:19;;;;;;;1.17;1.08;;;;;;;7.99;79.17;97168.25;2623154;47;20044;-69
2022/01/04 13:24:53;;;;;;;1.63;1.38;;;;;;;7.95;79.67;97167.06;2623316;54;20042;-69
2022/01/04 13:27:36;;;;;;;4.70;3.20;;;;;;;7.97;79.44;97167.66;2623259;54;20620;-69
2022/01/04 13:30:15;;;;;;;2.60;1.40;;;;;;;7.92;79.48;97170.94;2623146;47;20038;-69
2022/01/04 13:32:48;;;;;;;2.25;1.60;;;;;;;7.90;80.15;97172.16;2623743;39;20468;-69
2022/01/04 13:35:22;;;;;;;1.27;1.10;;;;;;;7.87;79.56;97173.38;2623176;54;20029;-71
2022/01/04 13:37:55;;;;;;;0.95;0.85;;;;;;;7.86;79.52;97179.69;2623194;54;20058;-69
2022/01/04 13:40:30;;;;;;;2.15;1.20;;;;;;;7.89;80.01;97181.88;2625078;39;20484;-71
2022/01/04 13:43:01;;;;;;;1.00;0.90;;;;;;;7.90;79.56;97186.13;2624302;54;20947;-70
2022/01/04 13:45:42;;;;;;;4.65;3.03;;;;;;;7.81;79.74;97187.41;2624802;54;20535;-70
2022/01/04 13:48:13;;;;;;;8.15;5.10;;;;;;;7.80;79.82;97198.97;2624513;54;20107;-69
2022/01/04 13:50:45;;;;;;;2.72;2.15;;;;;;;7.77;79.89;97201.22;2625744;39;20634;-70
2022/01/04 13:53:17;;;;;;;1.70;1.40;;;;;;;7.73;80.02;97203.47;2624534;54;20033;-70
2022/01/04 13:56:09;;;;;;;3.00;1.65;;;;;;;7.69;80.11;97210.97;2627692;39;20422;-70
2022/01/04 13:58:44;;;;;;;2.83;1.52;;;;;;;7.64;79.73;97213.44;2624204;47;20026;-70
2022/01/04 14:01:21;;;;;;;1.38;0.98;;;;;;;7.60;79.96;97219.34;2624642;47;20038;-70
2022/01/04 14:03:53;;;;;;;0.75;0.70;;;;;;;7.50;80.12;97221.59;2624035;47;20109;-70
2022/01/04 14:06:34;;;;;;;1.85;1.00;;;;;;;7.46;80.27;97231.75;2624164;54;20030;-70
2022/01/04 14:09:06;;;;;;;2.00;1.00;;;;;;;7.49;80.46;97222.63;2624739;54;20035;-70
2022/01/04 14:11:41;;;;;;;1.48;1.20;;;;;;;7.51;80.59;97231.94;2624330;51;20087;-70
2022/01/04 14:14:16;;;;;;;3.30;3.00;;;;;;;7.55;80.44;97230.50;2624670;54;20140;-70
2022/01/04 14:16:52;;;;;;;2.38;1.50;;;;;;;7.61;80.26;97231.47;2624619;39;20438;-70
2022/01/04 14:19:24;;;;;;;3.80;2.50;;;;;;;7.68;80.39;97240.13;2624769;47;20117;-71
2022/01/04 14:22:03;;;;;;;3.08;1.50;;;;;;;7.63;80.55;97246.03;2625644;39;20505;-70
2022/01/04 14:24:39;;;;;;;1.33;1.10;;;;;;;7.62;80.05;97243.59;2624336;54;20038;-70
2022/01/04 14:27:13;;;;;;;1.83;1.60;;;;;;;7.68;80.62;97242.75;2625063;54;20138;-70
2022/01/04 14:29:46;;;;;;;2.88;2.30;;;;;;;7.69;80.40;97253.06;2624851;47;20191;-70
2022/01/04 14:32:22;;;;;;;1.95;1.70;;;;;;;7.74;80.24;97260.31;2624952;54;20030;-71
2022/01/04 14:34:52;;;;;;;1.85;1.50;;;;;;;7.68;79.78;97255.91;2624954;47;20029;-71
2022/01/04 14:37:23;;;;;;;4.38;1.90;;;;;;;7.63;79.92;97240.75;2625113;54;20030;-71
2022/01/04 14:39:53;;;;;;;4.88;3.60;;;;;;;7.73;80.25;97245.53;2625088;54;20030;-70
2022/01/04 14:42:25;;;;;;;1.88;1.52;;;;;;;7.65;79.70;97243.97;2625252;54;20569;-70
2022/01/04 14:44:55;;;;;;;2.30;1.75;;;;;;;7.65;80.15;97243.16;2625386;46;20059;-71
2022/01/04 14:47:25;;;;;;;1.85;1.45;;;;;;;7.59;79.98;97244.84;2625265;54;20039;-70
2022/01/04 14:49:55;;;;;;;2.83;2.17;;;;;;;7.60;80.20;97245.63;2625693;54;20038;-71
2022/01/04 14:52:25;;;;;;;4.25;2.95;;;;;;;7.62;80.54;97241.75;2625698;54;20685;-71
2022/01/04 14:54:55;;;;;;;2.20;1.55;;;;;;;7.59;80.18;97255.34;2626919;39;20512;-72
2022/01/04 14:57:29;;;;;;;1.88;1.70;;;;;;;7.61;79.95;97263.81;2625689;54;20034;-70
2022/01/04 15:00:01;;;;;;;3.75;2.75;;;;;;;7.57;80.02;97262.63;2624257;54;20135;-69
2022/01/04 15:02:31;;;;;;;3.22;2.30;;;;;;;7.58;80.50;97266.88;2624818;54;20111;-71
2022/01/04 15:05:01;;;;;;;3.65;2.38;;;;;;;7.56;80.04;97261.03;2625292;39;20606;-72
2022/01/04 15:07:31;;;;;;;4.20;3.25;;;;;;;7.58;80.21;97264.25;2625046;54;21627;-72
2022/01/04 15:10:01;;;;;;;4.80;3.50;;;;;;;7.63;80.53;97259.19;2624220;54;20043;-72
2022/01/04 15:12:33;;;;;;;6.10;3.75;;;;;;;7.56;80.13;97240.00;2623235;54;20045;-69
2022/01/04 15:15:05;;;;;;;5.40;4.43;;;;;;;7.48;79.58;97242.06;2623412;54;20041;-72
2022/01/04 15:17:35;;;;;;;3.72;3.03;;;;;;;7.38;79.81;97238.03;2623471;54;20057;-71
2022/01/04 15:20:06;;;;;;;6.32;4.97;;;;;;;7.39;80.07;97239.69;2623655;54;20049;-71
2022/01/04 15:22:39;;;;;;;5.13;3.50;;;;;;;7.47;80.11;97243.88;2622922;46;20031;-71
2022/01/04 15:25:11;;;;;;;6.72;4.78;;;;;;;7.41;79.55;97245.53;2624124;54;20054;-72
2022/01/04 15:27:47;;;;;;;5.60;3.30;;;;;;;7.36;79.35;97244.53;2623613;54;20269;-71
2022/01/04 15:30:17;;;;;;;3.67;2.65;;;;;;;7.34;79.60;97252.63;2623573;54;20935;-71
2022/01/04 15:32:46;;;;;;;4.22;2.58;;;;;;;7.38;79.79;97253.00;2624144;54;20033;-72
2022/01/04 15:35:16;;;;;;;6.97;3.13;;;;;;;7.37;79.57;97248.78;2623763;54;20073;-72
2022/01/04 15:37:45;;;;;;;2.78;1.83;;;;;;;7.30;79.27;97261.13;2623307;54;20034;-71
2022/01/04 15:40:16;;;;;;;2.85;1.90;;;;;;;7.28;79.08;97271.06;2622398;54;20186;-69
2022/01/04 15:42:48;;;;;;;3.95;3.00;;;;;;;7.35;79.57;97277.91;2620886;54;20027;-68
2022/01/04 15:45:20;;;;;;;2.92;2.30;;;;;;;7.39;79.37;97273.06;2620748;54;20115;-69
2022/01/04 15:47:50;;;;;;;3.97;2.67;;;;;;;7.38;79.34;97279.31;2621282;54;20035;-70
2022/01/04 15:50:19;;;;;;;5.00;3.17;;;;;;;7.32;79.18;97280.97;2623640;39;20427;-69
2022/01/04 15:52:51;;;;;;;4.05;2.58;;;;;;;7.30;79.14;97277.72;2621745;54;20605;-69
2022/01/04 15:55:20;;;;;;;4.70;2.70;;;;;;;7.29;79.38;97288.44;2621962;54;20074;-69
2022/01/04 15:57:53;;;;;;;3.00;2.30;;;;;;;7.26;79.18;97294.91;2622057;54;20090;-70
2022/01/04 16:00:23;;;;;;;3.70;2.63;;;;;;;7.26;79.57;97304.63;2623153;54;20070;-69
2022/01/04 16:02:54;;;;;;;3.10;2.10;;;;;;;7.23;79.11;97311.13;2623337;54;20030;-69
2022/01/04 16:05:24;;;;;;;2.45;1.90;;;;;;;7.16;79.11;97318.22;2623386;54;20035;-69
2022/01/04 16:07:54;;;;;;;2.33;1.80;;;;;;;7.19;79.69;97317.81;2623964;54;20045;-69
2022/01/04 16:10:23;;;;;;;4.78;3.53;;;;;;;7.22;79.36;97324.47;2623742;54;20030;-69
2022/01/04 16:12:59;;;;;;;3.25;2.58;;;;;;;7.28;79.49;97324.44;2622473;47;20026;-69
2022/01/04 16:15:41;;;;;;;5.53;2.70;;;;;;;7.19;79.65;97315.19;2621683;54;20026;-69
2022/01/04 16:18:29;;;;;;;4.05;2.90;;;;;;;7.18;79.46;97322.25;2622238;54;20564;-69
2022/01/04 16:23:54;;;;;;;4.75;3.33;;;;;;;7.13;79.41;97321.25;2621924;54;20585;-69
2022/01/04 16:26:24;;;;;;;4.32;2.70;;;;;;;7.09;79.07;97314.78;2622806;54;20047;-69
2022/01/04 16:29:03;;;;;;;2.38;2.10;;;;;;;7.04;79.61;97318.03;2622577;54;20065;-69
2022/01/04 16:31:33;;;;;;;4.75;3.63;;;;;;;7.05;79.77;97318.84;2623267;54;20082;-69
2022/01/04 16:34:03;;;;;;;3.80;3.13;;;;;;;7.05;79.93;97337.25;2623300;54;20049;-69
2022/01/04 16:36:35;;;;;;;5.72;3.63;;;;;;;7.09;79.67;97326.09;2622836;54;20030;-69
2022/01/04 16:39:07;;;;;;;5.28;4.05;;;;;;;7.12;79.59;97322.28;2622508;54;20046;-69
2022/01/04 16:41:37;;;;;;;6.20;4.20;;;;;;;7.16;79.88;97321.66;2622623;54;20041;-69
2022/01/04 16:44:10;;;;;;;4.82;3.40;;;;;;;7.13;79.55;97318.63;2623721;54;20051;-69
2022/01/04 16:46:42;;;;;;;5.32;4.57;;;;;;;7.23;79.99;97315.59;2623672;54;20034;-69
2022/01/04 16:49:13;;;;;;;5.80;4.47;;;;;;;7.26;79.93;97310.69;2624306;54;20031;-69
2022/01/04 16:51:44;;;;;;;7.10;4.80;;;;;;;7.29;79.77;97312.09;2624034;54;20042;-69
2022/01/04 16:54:14;;;;;;;5.60;4.78;;;;;;;7.28;79.45;97306.03;2623913;47;20530;-69
2022/01/04 16:56:44;;;;;;;5.55;3.60;;;;;;;7.20;79.47;97303.66;2624500;54;20051;-69
2022/01/04 16:59:20;;;;;;;5.32;3.95;;;;;;;7.20;79.75;97299.19;2623730;54;20030;-69
2022/01/04 17:01:50;;;;;;;4.30;3.90;;;;;;;7.22;79.50;97301.59;2625501;39;20419;-67
2022/01/04 17:04:22;;;;;;;5.22;3.50;;;;;;;7.18;79.51;97293.34;2622733;54;20041;-68
2022/01/04 17:06:53;;;;;;;5.75;4.22;;;;;;;7.19;79.83;97291.53;2622115;54;20037;-68
2022/01/04 17:09:27;;;;;;;4.28;3.83;;;;;;;7.18;79.70;97292.53;2622728;54;20022;-68
2022/01/04 17:12:09;;;;;;;4.75;4.22;;;;;;;7.14;79.85;97293.94;2622732;54;20026;-68
2022/01/04 17:17:24;;;;;;;5.05;4.50;;;;;;;7.17;80.02;97302.22;2619724;54;20078;-70
2022/01/04 17:19:54;;;;;;;6.88;5.55;;;;;;;7.25;80.35;97308.28;2618541;54;20034;-70
2022/01/04 17:22:24;;;;;;;6.43;5.78;;;;;;;7.26;80.17;97302.81;2618750;54;20042;-71
2022/01/04 17:25:04;;;;;;;5.20;3.80;;;;;;;7.28;80.01;97300.00;2619428;54;20605;-73
2022/01/04 17:27:34;;;;;;;5.30;4.72;;;;;;;7.33;79.89;97305.41;2619141;54;20084;-73
2022/01/04 17:30:10;;;;;;;4.95;4.45;;;;;;;7.38;79.89;97309.03;2619246;54;20026;-70
2022/01/04 17:32:40;;;;;;;5.97;5.25;;;;;;;7.32;79.45;97307.25;2618563;50;20578;-72
2022/01/04 17:35:10;;;;;;;6.03;4.47;;;;;;;7.27;79.38;97306.28;2619306;47;20034;-71
2022/01/04 17:37:40;;;;;;;5.00;4.32;;;;;;;7.23;79.51;97303.25;2622249;54;20034;-72
2022/01/04 17:40:25;;;;;;;5.97;4.85;;;;;;;7.17;79.83;97296.97;2624600;54;20542;-71
2022/01/04 17:42:55;;;;;;;6.93;4.55;;;;;;;7.19;80.25;97297.59;2623967;54;20727;-70
2022/01/04 17:45:29;;;;;;;6.38;5.28;;;;;;;7.20;80.16;97293.94;2623934;54;20094;-70
2022/01/04 17:47:58;;;;;;;;;;;;;;;7.19;79.86;97294.16;2623096;54;20034;-70
2022/01/04 17:50:28;;;;;;;5.15;4.65;;;;;;;7.17;80.30;97293.53;2619897;54;19946;-70
2022/01/04 17:52:58;;;;;;;9.05;5.57;;;;;;;7.17;80.46;97302.22;2625953;54;20030;-72